createdAt,value
2023-03-30T00:01:18.211Z,7.90
2023-03-30T00:03:48.383Z,13.97
2023-03-30T00:06:22.173Z,19.43
2023-03-30T00:08:53.740Z,6.53
2023-03-30T00:11:23.467Z,7.20
2023-03-30T00:13:52.603Z,7.30
2023-03-30T00:16:22.186Z,8.30
2023-03-30T00:18:50.855Z,14.03
2023-03-30T00:21:20.899Z,11.70
2023-03-30T00:23:49.278Z,7.30
2023-03-30T00:26:20.305Z,7.87
2023-03-30T00:28:49.036Z,8.03
2023-03-30T00:31:17.195Z,11.13
2023-03-30T00:33:47.525Z,8.97
2023-03-30T00:36:17.161Z,9.90
2023-03-30T00:38:48.546Z,7.53
2023-03-30T00:41:16.972Z,7.23
2023-03-30T00:44:01.449Z,8.23
2023-03-30T00:46:31.530Z,8.50
2023-03-30T00:49:05.363Z,5.60
2023-03-30T00:51:39.762Z,5.63
2023-03-30T00:54:14.959Z,5.83
2023-03-30T00:56:43.871Z,5.80
2023-03-30T00:59:14.680Z,5.90
2023-03-30T01:01:50.264Z,5.37
2023-03-30T01:04:18.998Z,4.53
2023-03-30T01:06:48.617Z,4.27
2023-03-30T01:09:17.956Z,4.97
2023-03-30T01:11:47.360Z,4.67
2023-03-30T01:14:19.204Z,8.63
2023-03-30T01:16:55.459Z,7.73
2023-03-30T01:19:57.057Z,4.80
2023-03-30T01:22:54.032Z,7.57
2023-03-30T01:26:01.133Z,5.57
2023-03-30T01:28:39.482Z,6.67
2023-03-30T01:31:44.331Z,5.63
2023-03-30T01:34:35.369Z,6.47
2023-03-30T01:37:24.291Z,6.10
2023-03-30T01:40:02.345Z,7.23
2023-03-30T01:42:37.527Z,9.67
2023-03-30T01:45:11.525Z,6.40
2023-03-30T01:47:46.650Z,4.90
2023-03-30T01:50:18.450Z,4.23
2023-03-30T01:52:55.109Z,9.70
2023-03-30T01:55:29.047Z,6.97
2023-03-30T01:58:02.142Z,6.43
2023-03-30T02:00:31.848Z,5.97
2023-03-30T02:03:07.308Z,6.37
2023-03-30T02:05:37.369Z,8.97
2023-03-30T02:08:11.709Z,7.63
2023-03-30T02:10:44.083Z,6.53
2023-03-30T02:13:14.511Z,4.47
2023-03-30T02:15:46.369Z,8.60
2023-03-30T02:18:14.918Z,5.90
2023-03-30T02:20:43.301Z,9.47
2023-03-30T02:23:11.795Z,5.07
2023-03-30T02:25:42.399Z,7.63
2023-03-30T02:28:12.390Z,7.73
2023-03-30T02:30:44.083Z,5.43
2023-03-30T02:33:26.169Z,6.53
2023-03-30T02:36:14.878Z,6.67
2023-03-30T02:39:07.473Z,6.50
2023-03-30T02:42:00.649Z,6.67
2023-03-30T02:44:39.396Z,5.63
2023-03-30T02:47:14.093Z,9.23
2023-03-30T02:49:59.128Z,6.13
2023-03-30T02:52:41.689Z,8.60
2023-03-30T02:55:16.292Z,7.83
2023-03-30T02:57:57.187Z,8.43
2023-03-30T03:00:29.297Z,8.40
2023-03-30T03:03:03.684Z,6.83
2023-03-30T03:05:34.081Z,9.70
2023-03-30T03:08:02.369Z,8.03
2023-03-30T03:10:30.451Z,10.30
2023-03-30T03:13:00.219Z,7.83
2023-03-30T03:15:29.098Z,9.43
2023-03-30T03:17:58.694Z,7.40
2023-03-30T03:20:30.749Z,5.73
2023-03-30T03:22:58.788Z,9.53
2023-03-30T03:25:29.593Z,9.47
2023-03-30T03:27:57.739Z,7.00
2023-03-30T03:30:27.614Z,8.93
2023-03-30T03:32:55.960Z,7.47
2023-03-30T03:35:24.380Z,6.43
2023-03-30T03:37:53.022Z,7.47
2023-03-30T03:40:22.322Z,11.93
2023-03-30T03:42:50.872Z,13.23
2023-03-30T03:45:20.331Z,8.33
2023-03-30T03:47:53.738Z,6.33
2023-03-30T03:50:23.653Z,11.10
2023-03-30T03:52:51.991Z,10.50
2023-03-30T03:55:21.861Z,8.97
2023-03-30T03:57:50.338Z,8.07
2023-03-30T04:00:19.427Z,11.00
2023-03-30T04:02:47.973Z,11.23
2023-03-30T04:05:17.837Z,47.60
2023-03-30T04:07:46.575Z,27.43
2023-03-30T04:10:16.025Z,12.13
2023-03-30T04:12:44.217Z,13.80
2023-03-30T04:15:12.550Z,7.87
2023-03-30T04:17:41.085Z,10.23
2023-03-30T04:20:12.513Z,9.80
2023-03-30T04:22:43.003Z,7.17
2023-03-30T04:25:15.225Z,6.77
2023-03-30T04:27:44.406Z,10.47
2023-03-30T04:30:14.054Z,6.43
2023-03-30T04:32:44.380Z,9.37
2023-03-30T04:35:14.481Z,10.53
2023-03-30T04:37:46.204Z,10.97
2023-03-30T04:40:16.438Z,5.80
2023-03-30T04:42:50.057Z,10.03
2023-03-30T04:45:21.163Z,14.43
2023-03-30T04:47:49.573Z,9.53
2023-03-30T04:50:18.184Z,6.97
2023-03-30T04:52:48.049Z,7.00
2023-03-30T04:55:16.309Z,7.83
2023-03-30T04:57:44.496Z,9.27
2023-03-30T05:00:15.424Z,13.17
2023-03-30T05:02:43.572Z,10.10
2023-03-30T05:05:12.917Z,7.87
2023-03-30T05:07:41.313Z,11.47
2023-03-30T05:10:12.503Z,8.50
2023-03-30T05:12:41.709Z,9.00
2023-03-30T05:15:11.314Z,11.43
2023-03-30T05:17:40.377Z,7.00
2023-03-30T05:20:10.242Z,10.33
2023-03-30T05:22:38.727Z,12.33
2023-03-30T05:25:08.334Z,13.00
2023-03-30T05:27:38.114Z,13.37
2023-03-30T05:30:08.494Z,14.10
2023-03-30T05:32:36.806Z,12.00
2023-03-30T05:35:05.767Z,9.03
2023-03-30T05:37:34.227Z,8.70
2023-03-30T05:40:06.139Z,9.73
2023-03-30T05:42:34.279Z,8.83
2023-03-30T05:45:04.379Z,11.63
2023-03-30T05:47:32.704Z,9.13
2023-03-30T05:50:00.889Z,10.80
2023-03-30T05:52:30.465Z,10.27
2023-03-30T05:54:58.873Z,16.30
2023-03-30T05:57:28.956Z,10.50
2023-03-30T06:00:00.841Z,8.97
2023-03-30T06:02:30.930Z,11.80
2023-03-30T06:05:01.928Z,11.17
2023-03-30T06:07:30.832Z,11.07
2023-03-30T06:10:01.629Z,14.43
2023-03-30T06:12:30.015Z,15.47
2023-03-30T06:14:58.000Z,9.33
2023-03-30T06:17:26.721Z,14.90
2023-03-30T06:19:56.566Z,11.60
2023-03-30T06:22:24.938Z,10.93
2023-03-30T06:24:53.060Z,9.57
2023-03-30T06:27:21.619Z,10.60
2023-03-30T06:29:50.188Z,12.87
2023-03-30T06:32:18.607Z,11.67
2023-03-30T06:34:47.160Z,9.13
2023-03-30T06:37:17.022Z,9.77
2023-03-30T06:39:46.481Z,9.27
2023-03-30T06:42:14.819Z,13.47
2023-03-30T06:44:42.889Z,13.23
2023-03-30T06:47:11.070Z,10.77
2023-03-30T06:49:39.405Z,12.80
2023-03-30T06:52:08.818Z,11.10
2023-03-30T06:54:38.650Z,11.80
2023-03-30T06:57:08.041Z,13.47
2023-03-30T06:59:36.636Z,10.87
2023-03-30T07:02:05.203Z,15.67
2023-03-30T07:04:34.779Z,10.30
2023-03-30T07:07:03.635Z,15.87
2023-03-30T07:09:31.660Z,10.60
2023-03-30T07:12:01.669Z,14.30
2023-03-30T07:14:30.232Z,9.53
2023-03-30T07:16:59.749Z,9.63
2023-03-30T07:19:28.666Z,15.17
2023-03-30T07:21:57.345Z,14.63
2023-03-30T07:24:25.529Z,8.03
2023-03-30T07:26:54.079Z,9.07
2023-03-30T07:29:23.834Z,10.03
2023-03-30T07:31:55.484Z,9.70
2023-03-30T07:34:24.138Z,10.83
2023-03-30T07:36:52.569Z,11.80
2023-03-30T07:39:22.317Z,8.77
2023-03-30T07:41:50.978Z,12.93
2023-03-30T07:44:19.822Z,12.07
2023-03-30T07:46:50.182Z,13.83
2023-03-30T07:49:18.840Z,11.70
2023-03-30T07:51:47.321Z,13.67
2023-03-30T07:54:16.166Z,11.33
2023-03-30T07:56:44.868Z,13.13
2023-03-30T07:59:14.329Z,15.57
2023-03-30T08:01:42.504Z,14.30
2023-03-30T08:04:12.763Z,11.17
2023-03-30T08:06:42.115Z,12.70
2023-03-30T08:09:10.989Z,11.30
2023-03-30T08:11:39.431Z,15.33
2023-03-30T08:14:07.971Z,13.97
2023-03-30T08:16:36.030Z,15.73
2023-03-30T08:19:04.454Z,15.87
2023-03-30T08:21:33.949Z,14.13
2023-03-30T08:24:03.721Z,17.00
2023-03-30T08:26:32.342Z,12.93
2023-03-30T08:29:00.667Z,16.90
2023-03-30T08:31:32.856Z,14.53
2023-03-30T08:34:03.908Z,15.37
2023-03-30T08:36:33.736Z,13.70
2023-03-30T08:39:02.901Z,14.90
2023-03-30T08:42:10.587Z,12.43
2023-03-30T08:44:42.082Z,21.87
2023-03-30T08:47:15.284Z,16.50
2023-03-30T08:49:48.456Z,10.50
2023-03-30T08:52:25.625Z,12.47
2023-03-30T08:54:54.077Z,14.93
2023-03-30T08:57:36.999Z,16.80
2023-03-30T09:00:20.228Z,14.60
2023-03-30T09:02:51.827Z,16.00
2023-03-30T09:05:26.266Z,17.07
2023-03-30T09:08:01.993Z,14.43
2023-03-30T09:10:33.247Z,13.00
2023-03-30T09:13:03.995Z,12.43
2023-03-30T09:15:37.300Z,11.67
2023-03-30T09:18:13.778Z,12.27
2023-03-30T09:20:45.906Z,9.03
2023-03-30T09:23:19.062Z,10.23
2023-03-30T09:25:53.612Z,8.70
2023-03-30T09:28:27.705Z,8.87
2023-03-30T09:31:03.293Z,11.40
2023-03-30T09:33:43.434Z,7.70
2023-03-30T09:36:16.780Z,11.70
2023-03-30T09:38:47.192Z,10.43
2023-03-30T09:41:30.798Z,7.80
2023-03-30T09:44:04.345Z,10.37
2023-03-30T09:46:34.114Z,8.97
2023-03-30T09:49:16.167Z,7.93
2023-03-30T09:52:06.244Z,7.07
2023-03-30T09:54:42.303Z,5.90
2023-03-30T09:57:30.396Z,8.10
2023-03-30T10:00:00.016Z,8.37
2023-03-30T10:02:31.624Z,10.03
2023-03-30T10:05:03.833Z,7.37
2023-03-30T10:07:37.995Z,7.70
2023-03-30T10:10:32.955Z,8.33
2023-03-30T10:13:06.681Z,7.07
2023-03-30T10:15:39.199Z,10.20
2023-03-30T10:18:25.888Z,6.07
2023-03-30T10:21:06.906Z,5.37
2023-03-30T10:23:40.199Z,6.23
2023-03-30T10:26:15.659Z,9.30
2023-03-30T10:28:54.379Z,6.50
2023-03-30T10:31:28.313Z,8.20
2023-03-30T10:34:00.657Z,7.50
2023-03-30T10:36:33.402Z,5.70
2023-03-30T10:39:10.878Z,4.53
2023-03-30T10:41:44.182Z,3.77
2023-03-30T10:44:21.699Z,6.70
2023-03-30T10:46:54.115Z,5.77
2023-03-30T10:49:33.649Z,4.47
2023-03-30T10:52:09.290Z,5.13
2023-03-30T10:54:44.696Z,5.23
2023-03-30T10:57:17.440Z,5.17
2023-03-30T11:00:09.921Z,6.30
2023-03-30T11:02:50.688Z,4.23
2023-03-30T11:05:22.986Z,3.83
2023-03-30T11:07:58.431Z,6.03
2023-03-30T11:10:31.618Z,5.50
2023-03-30T11:13:06.035Z,5.23
2023-03-30T11:15:42.335Z,4.07
2023-03-30T11:18:15.754Z,6.10
2023-03-30T11:20:51.053Z,4.43
2023-03-30T11:23:29.362Z,7.50
2023-03-30T11:26:04.377Z,5.27
2023-03-30T11:28:53.028Z,6.07
2023-03-30T11:31:34.021Z,6.07
2023-03-30T11:34:07.544Z,4.53
2023-03-30T11:36:41.494Z,3.33
2023-03-30T11:39:28.918Z,3.40
2023-03-30T11:42:07.638Z,4.00
2023-03-30T11:44:37.856Z,6.50
2023-03-30T11:47:21.736Z,4.03
2023-03-30T11:50:09.607Z,3.13
2023-03-30T11:52:46.265Z,1.77
2023-03-30T11:55:56.150Z,3.20
2023-03-30T11:58:33.704Z,2.37
2023-03-30T12:01:23.184Z,1.63
2023-03-30T12:03:54.934Z,1.83
2023-03-30T12:06:32.451Z,1.23
2023-03-30T12:09:14.472Z,1.50
2023-03-30T12:11:48.935Z,1.43
2023-03-30T12:14:40.805Z,2.73
2023-03-30T12:17:25.864Z,1.23
2023-03-30T12:19:59.943Z,0.97
2023-03-30T12:22:36.708Z,1.40
2023-03-30T12:25:19.756Z,2.03
2023-03-30T12:27:59.986Z,2.30
2023-03-30T12:30:29.488Z,2.67
2023-03-30T12:33:04.772Z,1.37
2023-03-30T12:35:56.301Z,1.40
2023-03-30T12:38:28.236Z,1.37
2023-03-30T12:41:06.356Z,2.07
2023-03-30T12:43:44.030Z,0.83
2023-03-30T12:46:20.554Z,1.03
2023-03-30T12:49:02.051Z,1.37
2023-03-30T12:51:47.430Z,1.13
2023-03-30T12:54:40.486Z,0.77
2023-03-30T12:57:22.465Z,1.17
2023-03-30T13:00:11.458Z,3.10
2023-03-30T13:03:00.782Z,1.93
2023-03-30T13:05:34.730Z,1.60
2023-03-30T13:08:09.600Z,1.90
2023-03-30T13:10:41.838Z,1.67
2023-03-30T13:13:23.415Z,5.00
2023-03-30T13:15:54.733Z,3.40
2023-03-30T13:18:42.001Z,2.60
2023-03-30T13:21:24.354Z,2.67
2023-03-30T13:24:05.991Z,4.17
2023-03-30T13:26:46.615Z,1.13
2023-03-30T13:29:18.131Z,1.63
2023-03-30T13:32:13.651Z,5.23
2023-03-30T13:35:13.320Z,1.97
2023-03-30T13:38:00.148Z,2.43
2023-03-30T13:40:38.509Z,2.40
2023-03-30T13:43:18.626Z,2.33
2023-03-30T13:46:09.285Z,2.07
2023-03-30T13:48:56.258Z,2.70
2023-03-30T13:51:27.642Z,1.70
2023-03-30T13:54:01.227Z,1.77
2023-03-30T13:56:35.142Z,2.90
2023-03-30T13:59:08.586Z,2.43
2023-03-30T14:01:39.652Z,2.13
2023-03-30T14:04:12.295Z,1.40
2023-03-30T14:06:46.058Z,1.17
2023-03-30T14:09:21.966Z,1.23
2023-03-30T14:11:52.196Z,4.97
2023-03-30T14:14:25.568Z,3.27
2023-03-30T14:16:54.469Z,1.93
2023-03-30T14:19:27.612Z,3.50
2023-03-30T14:21:58.375Z,1.27
2023-03-30T14:24:33.071Z,3.67
2023-03-30T14:27:04.682Z,3.47
2023-03-30T14:29:35.067Z,1.23
2023-03-30T14:32:08.593Z,1.67
2023-03-30T14:34:37.634Z,1.93
2023-03-30T14:37:08.283Z,1.67
2023-03-30T14:39:41.939Z,1.43
2023-03-30T14:42:17.506Z,2.07
2023-03-30T14:44:48.592Z,2.47
2023-03-30T14:47:19.463Z,3.17
2023-03-30T14:49:48.971Z,2.77
2023-03-30T14:52:20.044Z,2.43
2023-03-30T14:55:05.249Z,2.83
2023-03-30T14:57:39.097Z,2.93
2023-03-30T15:00:20.647Z,3.00
2023-03-30T15:02:53.810Z,1.63
2023-03-30T15:05:25.413Z,1.93
2023-03-30T15:07:55.033Z,1.37
2023-03-30T15:10:27.278Z,3.03
2023-03-30T15:12:59.161Z,2.87
2023-03-30T15:15:33.381Z,3.20
2023-03-30T15:18:05.103Z,4.60
2023-03-30T15:20:34.653Z,3.33
2023-03-30T15:23:03.154Z,2.20
2023-03-30T15:25:36.030Z,3.00
2023-03-30T15:28:08.132Z,2.67
2023-03-30T15:30:42.694Z,2.60
2023-03-30T15:33:22.060Z,2.57
2023-03-30T15:35:52.003Z,4.73
2023-03-30T15:38:32.445Z,3.87
2023-03-30T15:41:02.720Z,2.20
2023-03-30T15:43:33.761Z,4.17
2023-03-30T15:46:03.678Z,3.17
2023-03-30T15:48:40.877Z,3.10
2023-03-30T15:51:15.628Z,4.00
2023-03-30T15:53:52.152Z,3.07
2023-03-30T15:56:29.195Z,4.17
2023-03-30T15:58:59.649Z,4.03
2023-03-30T16:01:42.754Z,2.87
2023-03-30T16:04:15.502Z,3.90
2023-03-30T16:06:47.601Z,3.60
2023-03-30T16:09:17.794Z,3.60
2023-03-30T16:11:48.107Z,3.80
2023-03-30T16:14:20.563Z,1.87
2023-03-30T16:16:49.481Z,3.80
2023-03-30T16:19:20.751Z,1.50
2023-03-30T16:21:49.082Z,1.53
2023-03-30T16:24:17.422Z,2.60
2023-03-30T16:26:46.909Z,5.03
2023-03-30T16:29:22.073Z,3.53
2023-03-30T16:31:52.995Z,2.33
2023-03-30T16:34:22.085Z,1.53
2023-03-30T16:36:51.056Z,4.30
2023-03-30T16:39:22.816Z,4.03
2023-03-30T16:41:52.244Z,3.70
2023-03-30T16:44:24.225Z,5.00
2023-03-30T16:46:53.194Z,4.47
2023-03-30T16:49:23.434Z,4.27
2023-03-30T16:51:55.220Z,2.70
2023-03-30T16:54:31.011Z,4.00
2023-03-30T16:57:01.095Z,1.63
2023-03-30T16:59:32.674Z,2.83
2023-03-30T17:02:02.678Z,1.73
2023-03-30T17:04:31.186Z,1.53
2023-03-30T17:06:59.659Z,2.87
2023-03-30T17:09:28.371Z,2.97
2023-03-30T17:11:57.344Z,4.83
2023-03-30T17:14:25.397Z,3.67
2023-03-30T17:16:58.620Z,4.23
2023-03-30T17:19:28.150Z,4.47
2023-03-30T17:21:56.861Z,2.43
2023-03-30T17:24:25.736Z,5.00
2023-03-30T17:26:54.265Z,5.97
2023-03-30T17:29:22.630Z,17.23
2023-03-30T17:31:50.756Z,29.33
2023-03-30T17:34:21.257Z,78.57
2023-03-30T17:36:49.372Z,74.00
2023-03-30T17:39:17.618Z,37.17
2023-03-30T17:41:45.880Z,37.33
2023-03-30T17:44:14.349Z,36.30
2023-03-30T17:46:43.782Z,121.87
2023-03-30T17:49:17.851Z,157.07
2023-03-30T17:51:49.824Z,105.30
2023-03-30T17:54:17.846Z,128.20
2023-03-30T17:56:46.289Z,28.73
2023-03-30T17:59:14.517Z,17.00
2023-03-30T18:01:43.438Z,50.63
2023-03-30T18:04:14.243Z,26.30
2023-03-30T18:06:43.478Z,15.80
2023-03-30T18:09:17.686Z,23.80
2023-03-30T18:11:45.807Z,30.23
2023-03-30T18:14:14.734Z,51.80
2023-03-30T18:16:43.914Z,25.47
2023-03-30T18:19:12.567Z,39.73
2023-03-30T18:21:40.952Z,8.43
2023-03-30T18:24:09.588Z,5.80
2023-03-30T18:26:43.063Z,6.97
2023-03-30T18:29:20.447Z,6.53
2023-03-30T18:31:49.661Z,8.37
2023-03-30T18:34:19.804Z,5.33
2023-03-30T18:36:49.190Z,22.87
2023-03-30T18:39:20.121Z,7.97
2023-03-30T18:41:50.089Z,7.17
2023-03-30T18:44:18.609Z,4.10
2023-03-30T18:46:51.172Z,4.50
2023-03-30T18:49:21.409Z,5.83
2023-03-30T18:51:49.654Z,6.00
2023-03-30T18:54:17.809Z,5.37
2023-03-30T18:56:47.945Z,3.67
2023-03-30T18:59:19.913Z,4.40
2023-03-30T19:01:48.467Z,5.80
2023-03-30T19:04:16.978Z,5.00
2023-03-30T19:06:46.568Z,4.00
2023-03-30T19:09:14.597Z,6.03
2023-03-30T19:11:44.649Z,4.03
2023-03-30T19:14:12.923Z,6.53
2023-03-30T19:16:43.232Z,4.07
2023-03-30T19:19:14.937Z,5.97
2023-03-30T19:21:46.567Z,3.43
2023-03-30T19:24:14.893Z,4.13
2023-03-30T19:26:43.239Z,4.93
2023-03-30T19:29:11.412Z,3.97
2023-03-30T19:31:40.134Z,3.20
2023-03-30T19:34:10.045Z,4.53
2023-03-30T19:36:38.580Z,4.53
2023-03-30T19:39:07.700Z,3.77
2023-03-30T19:41:35.894Z,3.97
2023-03-30T19:44:04.183Z,6.47
2023-03-30T19:46:32.518Z,7.70
2023-03-30T19:49:01.452Z,7.10
2023-03-30T19:51:31.748Z,4.43
2023-03-30T19:54:00.030Z,5.70
2023-03-30T19:56:28.538Z,5.87
2023-03-30T19:58:56.770Z,2.53
2023-03-30T20:01:24.950Z,4.03
2023-03-30T20:03:53.314Z,4.17
2023-03-30T20:06:21.879Z,6.03
2023-03-30T20:08:52.405Z,4.20
2023-03-30T20:11:20.887Z,5.93
2023-03-30T20:13:49.107Z,8.53
2023-03-30T20:16:21.373Z,5.70
2023-03-30T20:18:55.136Z,4.57
2023-03-30T20:21:25.506Z,6.70
2023-03-30T20:23:56.093Z,5.53
2023-03-30T20:26:24.446Z,5.50
2023-03-30T20:28:55.011Z,5.60
2023-03-30T20:31:23.327Z,8.00
2023-03-30T20:33:51.784Z,3.00
2023-03-30T20:36:20.834Z,6.87
2023-03-30T20:38:49.824Z,6.60
2023-03-30T20:41:21.899Z,4.77
2023-03-30T20:43:57.086Z,5.97
2023-03-30T20:46:35.612Z,4.27
2023-03-30T20:49:07.131Z,4.73
2023-03-30T20:51:37.250Z,4.63
2023-03-30T20:54:06.384Z,5.40
2023-03-30T20:56:36.584Z,7.63
2023-03-30T20:59:05.222Z,6.87
2023-03-30T21:01:39.271Z,4.97
2023-03-30T21:04:08.340Z,6.83
2023-03-30T21:06:36.953Z,7.33
2023-03-30T21:09:07.213Z,5.53
2023-03-30T21:11:39.489Z,8.63
2023-03-30T21:14:12.219Z,4.77
2023-03-30T21:16:42.265Z,7.53
2023-03-30T21:19:11.135Z,5.03
2023-03-30T21:21:40.056Z,7.87
2023-03-30T21:24:09.997Z,6.53
2023-03-30T21:26:40.687Z,6.83
2023-03-30T21:29:08.889Z,11.13
2023-03-30T21:31:37.347Z,8.47
2023-03-30T21:34:07.240Z,5.53
2023-03-30T21:36:36.068Z,5.77
2023-03-30T21:39:04.595Z,3.77
2023-03-30T21:41:36.720Z,6.37
2023-03-30T21:44:06.925Z,5.30
2023-03-30T21:46:35.709Z,5.77
2023-03-30T21:49:06.501Z,4.17
2023-03-30T21:51:35.178Z,6.37
2023-03-30T21:54:03.335Z,10.73
2023-03-30T21:56:32.743Z,7.53
2023-03-30T21:59:01.064Z,8.57
2023-03-30T22:01:32.491Z,7.70
2023-03-30T22:04:02.114Z,8.67
2023-03-30T22:06:31.859Z,9.23
2023-03-30T22:08:59.976Z,4.77
2023-03-30T22:11:28.298Z,6.07
2023-03-30T22:13:57.145Z,7.27
2023-03-30T22:16:28.453Z,6.77
2023-03-30T22:18:58.842Z,9.60
2023-03-30T22:21:29.349Z,6.27
2023-03-30T22:23:57.567Z,5.27
2023-03-30T22:26:27.129Z,6.90
2023-03-30T22:28:55.562Z,9.53
2023-03-30T22:31:26.672Z,7.87
2023-03-30T22:33:55.827Z,7.87
2023-03-30T22:36:30.217Z,7.90
2023-03-30T22:39:00.397Z,6.80
2023-03-30T22:41:29.070Z,5.87
2023-03-30T22:43:58.639Z,6.17
2023-03-30T22:46:28.400Z,7.50
2023-03-30T22:48:56.975Z,6.83
2023-03-30T22:51:27.386Z,5.87
2023-03-30T22:53:59.070Z,7.90
2023-03-30T22:56:28.530Z,3.47
2023-03-30T22:58:57.393Z,5.83
2023-03-30T23:01:26.019Z,3.83
2023-03-30T23:03:54.972Z,5.73
2023-03-30T23:06:23.192Z,1.87
2023-03-30T23:08:54.656Z,6.37
2023-03-30T23:11:23.009Z,4.07
2023-03-30T23:13:54.098Z,3.83
2023-03-30T23:16:23.734Z,4.33
2023-03-30T23:18:54.722Z,6.10
2023-03-30T23:21:23.245Z,4.43
2023-03-30T23:23:52.685Z,4.03
2023-03-30T23:26:21.697Z,3.07
2023-03-30T23:28:50.124Z,3.63
2023-03-30T23:31:19.211Z,2.77
2023-03-30T23:33:47.500Z,8.13
2023-03-30T23:36:19.389Z,5.63
2023-03-30T23:38:48.003Z,4.70
2023-03-30T23:41:20.885Z,4.27
2023-03-30T23:43:51.597Z,6.77
2023-03-30T23:46:20.092Z,4.60
2023-03-30T23:48:48.549Z,4.80
2023-03-30T23:51:16.876Z,3.30
2023-03-30T23:53:44.980Z,3.80
2023-03-30T23:56:17.768Z,3.23
2023-03-30T23:58:47.599Z,2.67
